Time;durP1;ratioP1;P1;durP2;ratioP2;P2;SDS_P1;SDS_P2;PMS_P1;PMS_P2;Temp;Humidity;BMP_temperature;BMP_pressure;BME280_temperature;BME280_humidity;BME280_pressure;Samples;Min_cycle;Max_cycle;Signal;HPM_P1;HPM_P2
2022/02/01 00:00:56;;;;;;;102.03;50.57;;;;;;;0.29;62.99;99619.25;126228;1099;104242;-79
2022/02/01 00:03:30;;;;;;;100.13;50.47;;;;;;;0.28;63.75;99620.95;126243;1099;104149;-79
2022/02/01 00:06:10;;;;;;;100.05;50.95;;;;;;;0.31;64.03;99627.98;126231;1099;104246;-79
2022/02/01 00:08:48;;;;;;;97.30;49.90;;;;;;;0.29;63.41;99635.62;126476;1099;104156;-78
2022/02/01 00:11:33;;;;;;;93.10;47.57;;;;;;;0.25;63.79;99625.02;126423;1098;104159;-79
2022/02/01 00:14:13;;;;;;;91.47;45.00;;;;;;;0.16;64.01;99633.09;126255;1099;104280;-79
2022/02/01 00:17:08;;;;;;;91.67;47.30;;;;;;;0.14;63.96;99625.25;126479;1098;104162;-79
2022/02/01 00:20:04;;;;;;;93.13;47.37;;;;;;;0.17;63.91;99630.60;126206;1099;104232;-79
2022/02/01 00:34:11;;;;;;;85.87;44.47;;;;;;;-0.33;63.20;99647.98;126254;1099;104236;-79
2022/02/01 00:36:48;;;;;;;84.77;43.53;;;;;;;-0.47;63.98;99635.08;126469;1099;104150;-80
2022/02/01 00:39:29;;;;;;;81.60;40.90;;;;;;;-0.50;63.64;99641.73;126239;1099;104283;-79
2022/02/01 00:42:01;;;;;;;71.60;35.80;;;;;;;-0.55;63.51;99641.42;126282;1099;104184;-79
2022/02/01 00:44:32;;;;;;;69.23;34.13;;;;;;;-0.62;64.54;99644.41;126378;1099;104319;-79
2022/02/01 00:47:04;;;;;;;65.57;32.40;;;;;;;-0.67;63.92;99648.34;126442;1099;104171;-79
2022/02/01 00:49:36;;;;;;;67.07;32.87;;;;;;;-0.71;63.67;99641.22;126443;1098;102029;-79
2022/02/01 00:52:09;;;;;;;63.77;32.53;;;;;;;-0.72;64.84;99640.30;126339;1099;104192;-79
2022/02/01 00:54:42;;;;;;;65.63;33.03;;;;;;;-0.78;63.99;99639.89;126407;1099;104160;-79
2022/02/01 00:57:14;;;;;;;65.73;31.90;;;;;;;-0.77;64.24;99632.27;126474;1099;105342;-79
2022/02/01 00:59:46;;;;;;;67.77;33.33;;;;;;;-0.73;63.68;99634.27;126458;1099;104255;-79
2022/02/01 01:02:18;;;;;;;71.93;34.60;;;;;;;-0.64;63.54;99639.16;126517;1098;104169;-79
2022/02/01 01:04:49;;;;;;;63.37;31.63;;;;;;;-0.61;64.12;99643.59;126440;1099;104210;-79
2022/02/01 01:07:21;;;;;;;62.75;31.20;;;;;;;-0.64;64.53;99649.46;126520;1099;104222;-78
2022/02/01 01:09:53;;;;;;;65.63;31.07;;;;;;;-0.69;64.48;99652.52;126394;1099;104172;-78
2022/02/01 01:12:27;;;;;;;64.83;31.57;;;;;;;-0.79;64.50;99653.59;126406;1099;104146;-79
2022/02/01 01:15:18;;;;;;;64.70;33.40;;;;;;;-0.86;64.89;99651.37;126484;1099;104230;-79
2022/02/01 01:43:38;;;;;;;62.87;31.20;;;;;;;-1.00;65.24;99642.72;126316;1099;104161;-79
2022/02/01 01:52:46;;;;;;;64.73;32.10;;;;;;;-1.00;65.07;99655.59;125471;1099;104156;-79
2022/02/01 01:54:47;;;;;;;62.73;32.23;;;;;;;-0.98;64.77;99642.05;125407;1102;108993;-79
2022/02/01 01:57:19;;;;;;;63.73;32.63;;;;;;;-0.94;64.75;99643.13;125552;1102;104165;-79
2022/02/01 01:59:52;;;;;;;67.50;32.67;;;;;;;-0.88;65.04;99632.36;125460;1101;104201;-79
2022/02/01 02:02:23;;;;;;;65.07;31.80;;;;;;;-0.81;65.21;99645.76;125494;1102;104366;-79
2022/02/01 02:04:55;;;;;;;61.87;30.80;;;;;;;-0.71;64.89;99636.06;125465;1102;104469;-79
2022/02/01 02:07:27;;;;;;;62.43;31.40;;;;;;;-0.65;64.95;99633.90;125495;1103;104322;-79
2022/02/01 02:10:02;;;;;;;65.47;32.67;;;;;;;-0.61;64.89;99638.44;125456;1102;104201;-79
2022/02/01 02:12:52;;;;;;;66.00;33.43;;;;;;;-0.58;65.29;99638.64;125474;1102;104264;-79
2022/02/01 02:15:38;;;;;;;65.30;32.53;;;;;;;-0.58;64.54;99624.09;125475;1102;104171;-79
2022/02/01 02:18:10;;;;;;;67.00;33.70;;;;;;;-0.58;65.36;99621.52;126030;1099;104319;-79
2022/02/01 02:20:44;;;;;;;69.30;33.23;;;;;;;-0.57;65.20;99627.55;126414;1099;104226;-79
2022/02/01 02:23:15;;;;;;;67.80;33.58;;;;;;;-0.57;64.70;99625.86;126469;1099;104242;-79
2022/02/01 02:25:47;;;;;;;69.03;34.13;;;;;;;-0.61;65.22;99634.20;126437;1099;104146;-79
2022/02/01 02:28:21;;;;;;;68.43;34.73;;;;;;;-0.57;65.43;99635.29;126517;1099;101935;-79
2022/02/01 02:30:55;;;;;;;69.62;34.92;;;;;;;-0.56;65.50;99637.97;126458;1099;104136;-78
2022/02/01 02:33:25;;;;;;;;;;;;;;;-0.63;65.41;99642.61;126508;1099;104181;-79
2022/02/01 02:36:01;;;;;;;66.47;31.93;;;;;;;-0.70;65.09;99642.98;126472;1099;104248;-79
2022/02/01 02:38:38;;;;;;;67.75;34.30;;;;;;;-0.76;65.47;99639.22;126538;1099;104014;-79
2022/02/01 02:41:29;;;;;;;69.73;33.77;;;;;;;-0.81;65.18;99650.00;126457;1099;104191;-79
2022/02/01 02:46:54;;;;;;;60.43;31.73;;;;;;;-0.98;65.26;99654.01;126529;1098;104232;-79
2022/02/01 02:49:26;;;;;;;62.63;29.83;;;;;;;-1.07;65.30;99667.17;126544;1099;104015;-79
2022/02/01 02:51:57;;;;;;;59.60;29.30;;;;;;;-1.13;65.04;99675.36;126486;1099;104605;-79
2022/02/01 02:54:30;;;;;;;59.40;29.00;;;;;;;-1.16;65.52;99675.14;126472;1099;104172;-79
2022/02/01 02:57:04;;;;;;;58.43;29.73;;;;;;;-1.23;65.75;99678.11;126470;1099;104188;-79
2022/02/01 02:59:37;;;;;;;59.17;30.50;;;;;;;-1.30;65.01;99678.45;126473;1099;102110;-78
2022/02/01 03:02:09;;;;;;;56.50;29.10;;;;;;;-1.34;65.61;99679.02;126540;1099;104158;-78
2022/02/01 03:04:41;;;;;;;62.00;30.57;;;;;;;-1.36;65.08;99678.03;126467;1099;104245;-79
2022/02/01 03:07:12;;;;;;;58.70;30.57;;;;;;;-1.34;65.92;99681.59;126503;1099;104069;-79
2022/02/01 03:09:44;;;;;;;63.43;31.07;;;;;;;-1.36;66.00;99681.48;126545;1099;104124;-79
2022/02/01 03:12:30;;;;;;;60.87;30.57;;;;;;;-1.31;66.00;99675.00;126501;1099;104150;-79
2022/02/01 03:15:23;;;;;;;57.87;29.20;;;;;;;-1.26;64.88;99680.47;126455;1099;104150;-79
2022/02/01 03:20:44;;;;;;;52.47;27.77;;;;;;;-1.21;65.58;99675.64;126489;1099;104155;-79
2022/02/01 03:23:15;;;;;;;58.57;29.10;;;;;;;-1.21;65.80;99675.64;126552;1099;104356;-79
2022/02/01 03:25:47;;;;;;;56.97;27.83;;;;;;;-1.27;65.76;99679.55;126453;1099;104254;-79
2022/02/01 03:28:19;;;;;;;51.93;26.97;;;;;;;-1.28;65.24;99685.51;126531;1099;104162;-79
2022/02/01 03:30:50;;;;;;;58.17;26.87;;;;;;;-1.30;65.13;99686.18;126535;1099;104230;-79
2022/02/01 03:33:22;;;;;;;56.60;27.37;;;;;;;-1.40;65.26;99684.66;126526;1098;104248;-79
2022/02/01 03:35:53;;;;;;;54.87;27.43;;;;;;;-1.49;65.58;99684.89;126439;1098;102095;-79
2022/02/01 03:38:25;;;;;;;56.83;29.13;;;;;;;-1.55;65.91;99673.28;126469;1099;104156;-79
2022/02/01 03:40:56;;;;;;;57.53;27.57;;;;;;;-1.60;65.67;99674.65;126525;1099;104216;-79
2022/02/01 03:43:28;;;;;;;52.47;26.97;;;;;;;-1.64;65.46;99681.23;126496;1099;104249;-79
2022/02/01 03:45:59;;;;;;;53.50;26.80;;;;;;;-1.66;65.61;99687.96;126046;1099;104185;-78
2022/02/01 03:48:32;;;;;;;56.00;28.10;;;;;;;-1.67;65.65;99691.31;126499;1099;104290;-79
2022/02/01 03:51:04;;;;;;;55.97;28.10;;;;;;;-1.64;65.92;99694.09;126470;1099;104255;-79
2022/02/01 03:53:35;;;;;;;53.17;26.20;;;;;;;-1.57;65.31;99695.41;126501;1099;104143;-78
2022/02/01 03:56:08;;;;;;;55.10;27.63;;;;;;;-1.53;66.10;99700.89;126368;1099;104157;-79
2022/02/01 03:58:39;;;;;;;60.10;29.95;;;;;;;-1.47;65.76;99697.86;126409;1099;104316;-79
2022/02/01 04:01:11;;;;;;;56.03;29.57;;;;;;;-1.46;66.34;99699.66;126453;1099;104417;-78
2022/02/01 04:03:43;;;;;;;58.90;29.27;;;;;;;-1.47;66.23;99706.47;126377;1099;104229;-79
2022/02/01 04:06:14;;;;;;;60.03;30.30;;;;;;;-1.45;66.17;99709.14;126170;1099;104332;-80
2022/02/01 04:08:47;;;;;;;58.43;30.30;;;;;;;-1.45;66.03;99704.92;126232;1099;104156;-81
2022/02/01 04:11:19;;;;;;;59.67;30.23;;;;;;;-1.45;65.86;99704.00;126271;1099;104338;-81
2022/02/01 04:13:50;;;;;;;63.30;31.77;;;;;;;-1.46;66.12;99703.13;126312;1099;104176;-80
2022/02/01 04:16:22;;;;;;;66.27;32.03;;;;;;;-1.48;65.80;99707.28;126167;1099;104169;-80
2022/02/01 04:18:53;;;;;;;70.60;33.57;;;;;;;-1.53;66.51;99703.45;126278;1099;104163;-81
2022/02/01 04:21:25;;;;;;;61.10;31.77;;;;;;;-1.55;66.03;99697.32;126220;1099;104313;-81
2022/02/01 04:23:56;;;;;;;57.73;29.80;;;;;;;-1.61;66.23;99701.15;126324;1099;104031;-81
2022/02/01 04:26:27;;;;;;;58.43;29.90;;;;;;;-1.71;66.37;99699.61;126236;1099;104139;-80
2022/02/01 04:28:59;;;;;;;69.27;36.10;;;;;;;-1.85;66.48;99696.93;126287;1098;104185;-80
2022/02/01 04:31:30;;;;;;;75.23;42.73;;;;;;;-1.96;66.40;99697.84;126349;1099;104261;-81
2022/02/01 04:34:01;;;;;;;82.17;46.13;;;;;;;-2.06;65.76;99696.27;126283;1099;104293;-81
2022/02/01 04:36:33;;;;;;;81.60;42.40;;;;;;;-2.14;66.48;99696.51;126327;1099;104245;-81
2022/02/01 04:39:06;;;;;;;74.00;38.87;;;;;;;-2.22;66.55;99704.54;126262;1099;104342;-81
2022/02/01 04:41:37;;;;;;;76.57;41.33;;;;;;;-2.23;66.62;99707.91;126377;1099;104230;-80
2022/02/01 04:44:09;;;;;;;75.33;38.37;;;;;;;-2.21;65.90;99711.48;126371;1099;104267;-80
2022/02/01 04:46:40;;;;;;;66.97;34.23;;;;;;;-2.19;66.34;99712.48;126338;1099;104571;-80
2022/02/01 04:49:12;;;;;;;60.03;32.23;;;;;;;-2.19;66.48;99724.45;126374;1099;104178;-81
2022/02/01 04:51:44;;;;;;;67.23;32.30;;;;;;;-2.27;66.26;99711.03;126270;1099;104367;-81
2022/02/01 04:54:15;;;;;;;69.60;34.10;;;;;;;-2.38;66.06;99711.92;126328;1099;104177;-81
2022/02/01 04:56:46;;;;;;;68.93;33.50;;;;;;;-2.51;66.22;99722.05;126361;1099;104627;-81
2022/02/01 04:59:18;;;;;;;68.97;33.13;;;;;;;-2.60;65.68;99730.87;126252;1099;104252;-81
2022/02/01 05:01:49;;;;;;;61.57;30.17;;;;;;;-2.66;66.65;99727.84;126280;1099;104216;-81
2022/02/01 05:04:21;;;;;;;65.53;33.10;;;;;;;-2.72;67.45;99742.78;126403;1099;104223;-80
2022/02/01 05:06:54;;;;;;;60.23;32.03;;;;;;;-2.81;66.71;99736.95;126334;1099;104261;-81
2022/02/01 05:09:26;;;;;;;69.00;33.00;;;;;;;-2.85;66.20;99742.61;126355;1098;104198;-81
2022/02/01 05:12:01;;;;;;;65.03;32.27;;;;;;;-2.87;65.96;99754.45;126121;1099;104202;-82
2022/02/01 05:14:32;;;;;;;61.67;31.27;;;;;;;-2.89;66.62;99751.77;126019;1099;104625;-82
2022/02/01 05:17:04;;;;;;;60.13;30.37;;;;;;;-2.90;66.70;99750.88;125952;1098;104265;-82
2022/02/01 05:19:47;;;;;;;64.40;33.17;;;;;;;-2.92;66.74;99754.98;125973;1099;104323;-82
2022/02/01 05:22:20;;;;;;;64.57;32.43;;;;;;;-2.94;66.57;99756.55;126033;1099;104286;-82
2022/02/01 05:24:55;;;;;;;63.90;32.10;;;;;;;-2.93;66.63;99762.56;125988;1099;104152;-82
2022/02/01 05:27:29;;;;;;;64.77;32.43;;;;;;;-2.90;66.54;99765.37;126134;1097;104198;-82
2022/02/01 05:30:00;;;;;;;65.08;32.08;;;;;;;-2.85;66.67;99758.02;126294;1097;104265;-82
2022/02/01 05:32:32;;;;;;;61.87;30.07;;;;;;;-2.78;66.83;99774.02;126273;1098;104150;-81
2022/02/01 05:35:04;;;;;;;57.50;28.97;;;;;;;-2.76;66.98;99777.61;126316;1098;104214;-81
2022/02/01 05:37:36;;;;;;;57.43;28.00;;;;;;;-2.75;66.28;99775.93;126300;1097;105489;-79
2022/02/01 05:40:10;;;;;;;60.93;27.93;;;;;;;-2.72;67.15;99779.62;126316;1099;104207;-80
2022/02/01 05:42:45;;;;;;;54.97;28.37;;;;;;;-2.65;67.22;99774.95;126278;1099;104197;-80
2022/02/01 05:45:17;;;;;;;56.80;27.63;;;;;;;-2.65;67.37;99773.30;126353;1099;104217;-80
2022/02/01 05:47:48;;;;;;;58.67;28.83;;;;;;;-2.60;67.56;99783.89;126345;1099;104146;-80
2022/02/01 05:50:20;;;;;;;51.77;25.77;;;;;;;-2.57;66.71;99792.75;126359;1099;104134;-80
2022/02/01 05:52:52;;;;;;;53.20;26.17;;;;;;;-2.58;67.93;99797.77;126405;1099;104252;-80
2022/02/01 05:55:23;;;;;;;52.70;25.37;;;;;;;-2.63;68.00;99797.42;126383;1099;104191;-80
2022/02/01 05:57:55;;;;;;;53.27;27.87;;;;;;;-2.67;66.76;99803.09;126320;1099;102966;-81
2022/02/01 06:00:27;;;;;;;54.27;28.20;;;;;;;-2.73;66.91;99816.38;126278;1099;104242;-82
2022/02/01 06:02:59;;;;;;;57.13;28.63;;;;;;;-2.75;67.71;99819.59;126176;1099;104845;-81
2022/02/01 06:05:32;;;;;;;60.57;30.83;;;;;;;-2.78;68.22;99830.51;126253;1098;104213;-82
2022/02/01 06:08:04;;;;;;;64.03;31.93;;;;;;;-2.82;67.30;99828.50;126140;1097;104245;-81
2022/02/01 06:10:36;;;;;;;53.20;29.77;;;;;;;-2.86;68.55;99844.43;126085;1099;104194;-82
2022/02/01 06:13:08;;;;;;;62.50;30.50;;;;;;;-2.89;68.11;99833.92;126169;1097;104134;-81
2022/02/01 06:15:40;;;;;;;65.70;31.97;;;;;;;-2.88;67.15;99830.59;126176;1098;102204;-81
2022/02/01 06:18:12;;;;;;;59.37;32.20;;;;;;;-2.85;67.51;99833.39;126111;1099;104258;-81
2022/02/01 06:20:44;;;;;;;52.50;27.23;;;;;;;-2.81;67.82;99835.41;126282;1099;104210;-82
2022/02/01 06:23:23;;;;;;;50.63;26.80;;;;;;;-2.83;67.39;99839.53;126224;1099;104127;-81
2022/02/01 06:25:56;;;;;;;52.10;26.77;;;;;;;-2.85;67.77;99837.61;126290;1098;104245;-82
2022/02/01 06:28:29;;;;;;;48.60;24.63;;;;;;;-2.86;67.48;99849.56;126173;1099;104140;-82
2022/02/01 06:31:01;;;;;;;54.07;26.17;;;;;;;-2.87;67.78;99846.88;126320;1099;104169;-83
2022/02/01 06:33:33;;;;;;;49.53;24.87;;;;;;;-2.93;67.59;99845.64;125996;1097;105155;-83
2022/02/01 06:36:04;;;;;;;49.60;24.87;;;;;;;-2.96;68.26;99855.66;125997;1099;104593;-83
2022/02/01 06:38:37;;;;;;;50.53;24.63;;;;;;;-2.96;68.57;99854.74;126064;1099;102302;-83
2022/02/01 06:41:09;;;;;;;47.63;21.57;;;;;;;-2.95;68.16;99862.56;126053;1099;104634;-81
2022/02/01 06:43:40;;;;;;;46.37;22.40;;;;;;;-2.95;67.74;99865.13;126118;1099;104158;-82
2022/02/01 06:46:15;;;;;;;49.60;22.27;;;;;;;-2.94;68.51;99869.50;126055;1099;104360;-82
2022/02/01 06:48:46;;;;;;;43.27;22.00;;;;;;;-2.95;68.30;99870.27;125949;1099;104347;-84
2022/02/01 06:51:19;;;;;;;46.07;22.60;;;;;;;-2.93;68.39;99865.25;126021;1099;104239;-84
2022/02/01 06:53:51;;;;;;;43.10;22.20;;;;;;;-2.90;68.37;99868.98;126045;1099;104140;-83
2022/02/01 06:56:28;;;;;;;47.40;23.13;;;;;;;-2.86;68.71;99874.36;126075;1099;104185;-83
2022/02/01 06:59:05;;;;;;;46.37;23.80;;;;;;;-2.77;67.87;99867.38;126019;1099;104137;-82
2022/02/01 07:01:43;;;;;;;53.90;24.73;;;;;;;-2.77;68.34;99845.16;125951;1099;102356;-84
2022/02/01 07:04:18;;;;;;;47.83;23.20;;;;;;;-2.60;68.03;99863.52;126085;1099;104171;-81
2022/02/01 07:06:57;;;;;;;46.23;23.93;;;;;;;-2.50;68.07;99863.47;125925;1098;104223;-83
2022/02/01 07:09:33;;;;;;;49.63;24.70;;;;;;;-2.48;68.32;99845.60;125786;1099;104178;-83
2022/02/01 07:12:09;;;;;;;51.20;25.32;;;;;;;-2.26;68.89;99871.25;125920;1097;104214;-84
2022/02/01 07:14:54;;;;;;;61.03;28.53;;;;;;;-2.15;68.92;99870.42;125836;1099;104216;-83
2022/02/01 07:17:31;;;;;;;64.77;33.30;;;;;;;-2.01;67.71;99880.06;125753;1099;104217;-84
2022/02/01 07:20:03;;;;;;;;;;;;;;;-1.92;68.29;99887.55;125775;1099;104528;-83
2022/02/01 07:23:04;;;;;;;66.37;33.80;;;;;;;-1.86;68.51;99885.44;125735;1099;104357;-84
2022/02/01 07:25:47;;;;;;;58.50;29.77;;;;;;;-1.74;67.65;99892.31;125677;1099;104396;-84
2022/02/01 07:28:26;;;;;;;59.97;29.87;;;;;;;-1.68;67.77;99887.63;125155;1099;104156;-82
2022/02/01 07:31:02;;;;;;;51.33;26.03;;;;;;;-1.65;68.63;99890.42;125604;1099;104362;-82
2022/02/01 07:33:33;;;;;;;;;;;;;;;-1.69;68.35;99889.28;125650;1099;104285;-83
2022/02/01 07:36:24;;;;;;;64.83;30.17;;;;;;;-1.71;68.48;99898.56;125154;1099;104178;-84
2022/02/01 07:39:21;;;;;;;67.60;31.90;;;;;;;-1.75;68.42;99903.37;126046;1099;104143;-82
2022/02/01 07:41:57;;;;;;;57.47;31.40;;;;;;;-1.76;68.68;99917.00;125054;1099;108892;-81
2022/02/01 07:44:31;;;;;;;63.57;30.73;;;;;;;-1.75;67.89;99924.83;125822;1099;104448;-81
2022/02/01 07:47:11;;;;;;;57.85;30.40;;;;;;;-1.73;68.70;99927.52;126098;1099;104335;-82
2022/02/01 07:49:45;;;;;;;58.53;31.43;;;;;;;-1.73;68.06;99922.38;126077;1099;104255;-82
2022/02/01 07:52:20;;;;;;;71.67;37.13;;;;;;;-1.67;68.23;99920.27;125941;1099;104573;-84
2022/02/01 07:55:01;;;;;;;82.10;43.33;;;;;;;-1.63;68.11;99925.75;125950;1099;104361;-82
2022/02/01 07:57:34;;;;;;;74.80;39.30;;;;;;;-1.57;68.62;99925.33;125247;1099;102368;-85
2022/02/01 08:00:10;;;;;;;69.43;36.63;;;;;;;-1.57;68.67;99925.33;125967;1099;104226;-84
2022/02/01 08:02:55;;;;;;;66.47;35.73;;;;;;;-1.57;68.13;99916.69;125816;1099;104666;-83
2022/02/01 08:05:33;;;;;;;61.07;32.03;;;;;;;-1.55;68.22;99923.75;125803;1099;105470;-82
2022/02/01 08:08:07;;;;;;;63.33;32.47;;;;;;;-1.50;68.70;99922.41;125758;1099;103989;-81
2022/02/01 08:10:48;;;;;;;65.40;34.17;;;;;;;-1.43;68.75;99928.92;125816;1099;104149;-82
2022/02/01 08:16:52;;;;;;;60.20;31.03;;;;;;;-1.30;68.42;99916.16;125808;1099;104656;-84
2022/02/01 08:19:44;;;;;;;56.63;27.47;;;;;;;-1.23;68.36;99921.75;125797;1099;104418;-82
2022/02/01 08:22:32;;;;;;;55.20;27.50;;;;;;;-1.17;68.88;99927.35;125822;1099;105393;-82
2022/02/01 08:25:09;;;;;;;54.53;27.23;;;;;;;-1.05;68.31;99928.24;125884;1099;104173;-83
2022/02/01 08:27:44;;;;;;;57.17;29.77;;;;;;;-0.92;68.62;99932.59;125747;1099;104753;-83
2022/02/01 08:30:27;;;;;;;52.23;28.33;;;;;;;-0.80;67.77;99930.90;125926;1099;104153;-83
2022/02/01 08:33:12;;;;;;;46.33;25.00;;;;;;;-0.67;68.49;99936.92;125978;1099;118770;-81
2022/02/01 08:35:49;;;;;;;49.50;23.63;;;;;;;-0.57;67.87;99936.80;125872;1099;104179;-83
2022/02/01 08:38:27;;;;;;;45.53;24.07;;;;;;;-0.45;68.09;99940.25;125709;1099;104285;-82
2022/02/01 08:41:02;;;;;;;51.50;24.60;;;;;;;-0.38;68.16;99932.14;126052;1099;104172;-82
2022/02/01 08:43:38;;;;;;;54.40;24.07;;;;;;;-0.34;67.82;99937.52;125960;1099;104731;-83
2022/02/01 08:46:15;;;;;;;48.27;24.63;;;;;;;-0.28;67.68;99940.52;125987;1099;104201;-82
2022/02/01 08:48:49;;;;;;;54.77;26.03;;;;;;;-0.21;68.38;99935.89;126106;1099;104204;-82
2022/02/01 08:51:38;;;;;;;48.97;24.60;;;;;;;-0.13;67.55;99939.00;126187;1099;104207;-83
2022/02/01 08:54:25;;;;;;;44.87;24.17;;;;;;;-0.04;67.95;99939.64;126059;1099;104233;-82
2022/02/01 08:57:26;;;;;;;45.77;22.90;;;;;;;0.06;67.87;99943.73;125888;1099;104258;-84
2022/02/01 09:00:07;;;;;;;40.60;20.77;;;;;;;0.17;68.13;99936.73;125954;1099;104316;-83
2022/02/01 09:02:46;;;;;;;43.57;21.53;;;;;;;0.26;67.57;99945.09;125925;1099;102231;-83
2022/02/01 09:05:24;;;;;;;44.57;20.93;;;;;;;0.37;67.53;99947.52;126034;1099;104184;-85
2022/02/01 09:08:18;;;;;;;40.33;21.20;;;;;;;0.48;67.74;99944.88;125757;1099;104188;-84
2022/02/01 09:10:57;;;;;;;45.03;20.77;;;;;;;0.59;67.61;99932.65;125775;1099;104219;-83
2022/02/01 09:13:32;;;;;;;46.67;21.03;;;;;;;0.73;67.50;99927.51;126080;1099;104274;-83
2022/02/01 09:16:11;;;;;;;40.70;19.67;;;;;;;0.92;67.63;99929.59;126376;1099;104293;-83
2022/02/01 09:19:10;;;;;;;39.90;20.10;;;;;;;1.12;67.42;99921.43;126436;1099;104249;-80
2022/02/01 09:21:45;;;;;;;39.77;20.40;;;;;;;1.33;67.59;99921.91;126642;1099;102816;-82
2022/02/01 09:24:29;;;;;;;42.67;20.07;;;;;;;1.47;67.02;99919.31;126542;1099;104144;-83
2022/02/01 09:29:56;;;;;;;45.47;22.10;;;;;;;1.70;66.74;99905.19;126090;1099;104187;-82
2022/02/01 09:32:30;;;;;;;45.80;23.47;;;;;;;1.76;66.79;99901.31;126081;1099;104155;-82
2022/02/01 09:35:11;;;;;;;47.67;22.55;;;;;;;1.82;66.38;99895.59;126175;1098;104274;-82
2022/02/01 09:37:59;;;;;;;41.00;20.77;;;;;;;1.88;66.23;99890.80;125986;1099;104149;-81
2022/02/01 09:40:31;;;;;;;44.80;22.37;;;;;;;1.92;66.23;99887.60;126041;1099;104392;-81
2022/02/01 09:43:10;;;;;;;37.80;18.17;;;;;;;1.99;65.52;99883.67;126141;1099;104284;-79
2022/02/01 09:45:42;;;;;;;39.90;19.57;;;;;;;2.06;65.75;99883.25;126316;1099;104254;-80
2022/02/01 09:48:19;;;;;;;44.77;22.87;;;;;;;2.14;66.38;99875.95;126277;1098;104608;-81
2022/02/01 09:50:55;;;;;;;41.03;21.10;;;;;;;2.19;65.97;99876.22;126051;1099;104201;-82
2022/02/01 09:53:27;;;;;;;49.43;23.53;;;;;;;2.23;65.79;99872.98;125955;1099;104149;-84
2022/02/01 09:55:59;;;;;;;45.10;22.43;;;;;;;2.31;65.69;99867.47;125957;1099;104280;-83
2022/02/01 09:58:40;;;;;;;46.33;21.90;;;;;;;2.39;64.96;99867.91;125180;1102;104294;-82
2022/02/01 10:01:30;;;;;;;46.57;22.37;;;;;;;2.39;65.11;99865.33;125253;1102;104153;-83
2022/02/01 10:04:26;;;;;;;45.90;23.10;;;;;;;2.42;64.94;99865.50;125091;1099;105524;-83
2022/02/01 10:07:25;;;;;;;37.63;20.40;;;;;;;2.54;65.14;99849.80;125035;1100;104175;-82
2022/02/01 10:10:01;;;;;;;41.03;20.07;;;;;;;2.65;65.66;99851.28;125052;1099;104205;-81
2022/02/01 10:12:36;;;;;;;47.53;19.70;;;;;;;2.74;65.53;99850.89;125092;1099;104342;-80
2022/02/01 10:15:26;;;;;;;45.43;22.20;;;;;;;2.85;64.92;99855.00;125009;1099;104156;-82
2022/02/01 10:18:04;;;;;;;39.13;17.37;;;;;;;2.97;65.22;99861.67;125104;1099;104255;-81
2022/02/01 10:21:05;;;;;;;39.90;17.45;;;;;;;3.12;65.30;99867.70;124963;1099;104361;-81
2022/02/01 10:23:46;;;;;;;39.97;18.13;;;;;;;3.32;65.10;99865.30;125301;1099;104166;-81
2022/02/01 10:26:28;;;;;;;40.03;17.85;;;;;;;3.52;64.97;99875.07;125797;1099;104216;-81
2022/02/01 10:29:24;;;;;;;36.07;18.07;;;;;;;3.67;65.00;99871.50;125767;1099;102530;-81
2022/02/01 10:35:58;;;;;;;37.70;16.80;;;;;;;3.92;64.54;99864.17;125060;1099;104149;-83
2022/02/01 10:38:54;;;;;;;35.93;18.13;;;;;;;3.96;64.07;99862.66;125045;1100;103601;-83
2022/02/01 10:41:36;;;;;;;41.03;19.37;;;;;;;4.00;63.85;99851.59;125108;1102;104441;-83
2022/02/01 10:44:47;;;;;;;35.20;17.83;;;;;;;3.98;62.70;99854.95;125121;1099;104342;-83
2022/02/01 10:47:35;;;;;;;36.45;18.05;;;;;;;3.95;62.62;99845.28;125320;1102;104147;-82
2022/02/01 10:50:13;;;;;;;44.60;18.93;;;;;;;3.91;62.72;99849.44;125269;1099;104438;-83
2022/02/01 10:52:54;;;;;;;37.63;17.67;;;;;;;3.90;63.09;99844.16;125185;1100;104287;-81
2022/02/01 10:55:28;;;;;;;35.73;16.77;;;;;;;3.91;63.50;99844.24;125163;1102;104415;-80
2022/02/01 10:58:04;;;;;;;37.90;18.37;;;;;;;3.95;63.02;99835.78;125246;1102;104216;-80
2022/02/01 11:00:42;;;;;;;41.75;17.95;;;;;;;4.01;62.46;99831.73;125614;1099;104169;-81
2022/02/01 11:03:21;;;;;;;45.43;18.60;;;;;;;4.10;62.56;99832.21;126078;1099;104179;-81
2022/02/01 11:05:58;;;;;;;41.57;19.17;;;;;;;4.16;61.64;99831.61;125787;1099;104357;-81
2022/02/01 11:08:32;;;;;;;42.60;18.73;;;;;;;4.22;61.72;99840.59;125906;1099;104145;-81
2022/02/01 11:11:07;;;;;;;45.93;20.63;;;;;;;4.27;62.56;99839.14;125973;1098;104220;-81
2022/02/01 11:14:03;;;;;;;40.33;19.77;;;;;;;4.32;62.32;99841.97;126015;1099;104307;-82
2022/02/01 11:16:43;;;;;;;46.80;20.53;;;;;;;4.46;62.67;99835.74;125712;1099;119121;-82
2022/02/01 11:19:17;;;;;;;48.73;20.20;;;;;;;4.58;62.03;99838.06;125678;1099;104274;-82
2022/02/01 11:21:52;;;;;;;44.73;20.07;;;;;;;4.71;62.54;99828.27;125825;1099;104197;-83
2022/02/01 11:24:38;;;;;;;39.60;19.33;;;;;;;4.77;61.96;99828.53;125841;1099;104220;-83
2022/02/01 11:27:18;;;;;;;42.33;19.67;;;;;;;4.84;61.26;99820.22;125869;1099;104823;-83
2022/02/01 11:30:11;;;;;;;40.83;19.87;;;;;;;4.86;61.34;99816.89;125842;1099;102998;-83
2022/02/01 11:33:25;;;;;;;41.80;19.67;;;;;;;4.92;60.86;99816.27;125648;1099;104316;-83
2022/02/01 11:36:06;;;;;;;45.87;19.77;;;;;;;4.93;61.43;99812.86;125775;1099;103055;-83
2022/02/01 11:38:55;;;;;;;45.80;19.77;;;;;;;4.90;60.56;99811.84;125929;1099;104185;-82
2022/02/01 11:41:53;;;;;;;40.37;19.67;;;;;;;4.86;60.84;99819.48;125861;1098;104644;-82
2022/02/01 11:44:32;;;;;;;45.30;20.43;;;;;;;4.84;60.59;99818.50;125983;1099;104263;-83
2022/02/01 11:47:14;;;;;;;42.48;20.08;;;;;;;4.83;60.68;99831.42;125795;1099;104656;-83
2022/02/01 11:49:58;;;;;;;41.17;18.17;;;;;;;4.77;60.12;99831.13;125795;1099;104181;-82
2022/02/01 11:52:42;;;;;;;38.85;17.00;;;;;;;4.76;60.29;99829.37;125869;1099;104582;-82
2022/02/01 11:55:20;;;;;;;41.85;19.32;;;;;;;4.83;60.63;99831.42;125388;1099;104290;-82
2022/02/01 11:57:56;;;;;;;42.33;19.07;;;;;;;4.89;60.79;99826.52;125166;1102;120197;-81
2022/02/01 12:00:40;;;;;;;45.47;21.13;;;;;;;4.94;60.97;99831.94;125151;1099;104514;-82
2022/02/01 12:03:20;;;;;;;37.37;18.50;;;;;;;4.99;60.61;99838.27;125099;1099;104184;-82
2022/02/01 12:05:59;;;;;;;38.93;18.73;;;;;;;5.02;60.86;99843.61;125185;1099;105641;-81
2022/02/01 12:08:43;;;;;;;39.63;18.90;;;;;;;5.04;60.69;99845.45;125379;1102;104233;-81
2022/02/01 12:11:23;;;;;;;44.07;19.07;;;;;;;5.04;60.42;99832.45;125851;1099;104684;-82
2022/02/01 12:14:12;;;;;;;35.90;18.57;;;;;;;5.08;60.57;99832.59;125877;1099;104303;-82
2022/02/01 12:16:57;;;;;;;45.43;18.70;;;;;;;5.10;60.25;99830.98;125992;1099;104213;-82
2022/02/01 12:20:04;;;;;;;40.93;19.80;;;;;;;5.08;60.11;99836.11;126038;1098;104152;-81
2022/02/01 12:23:15;;;;;;;34.77;18.43;;;;;;;5.05;59.78;99835.96;125794;1099;104175;-83
2022/02/01 12:26:10;;;;;;;42.27;17.00;;;;;;;5.08;59.82;99835.19;125964;1099;104332;-83
2022/02/01 12:28:54;;;;;;;38.43;16.87;;;;;;;5.11;59.35;99832.73;126131;1099;109025;-83
2022/02/01 12:31:55;;;;;;;;;;;;;;;;;;;;;
2022/02/01 12:34:55;;;;;;;34.43;15.70;;;;;;;5.10;58.88;99831.86;126110;1097;104193;-82
2022/02/01 12:37:43;;;;;;;37.27;17.30;;;;;;;5.10;58.85;99838.78;125260;1099;104226;-83
2022/02/01 12:40:27;;;;;;;38.80;17.10;;;;;;;5.12;59.53;99835.41;125176;1102;104693;-82
2022/02/01 12:46:29;;;;;;;41.33;18.83;;;;;;;5.13;58.61;99837.20;125228;1102;104226;-82
2022/02/01 12:49:20;;;;;;;;;;;;;;;;;;;;;
2022/02/01 12:52:24;;;;;;;48.35;19.87;;;;;;;5.20;58.75;99838.37;125197;1102;104325;-82
2022/02/01 12:55:19;;;;;;;35.30;15.80;;;;;;;5.21;58.65;99843.64;125084;1099;104165;-82
2022/02/01 12:58:04;;;;;;;34.83;13.47;;;;;;;5.23;58.56;99846.31;125058;1098;104166;-82